SWR785 LSZH-LPMA
Flight info
| Callsign | SWR785 |
|---|---|
| Flight time | N/A |
| Altitude | 33000 |
| Route | VEBIT T50 ROTOS Z669 ULMES DCT VADAR DCT NINTU/N0488F410 DCT MEBAK DCT REPSI DCT LERGA DCT MINSO DCT NARAK DCT AGN DCT PIPOR DCT PPN DCT MIRPO DCT DGO DCT NEA DCT ARDID DCT FTM DCT NASAS DCT LIDRO |
| Aircraft | A359/H-SDE2E3GHIJ3J4J5LM1ORWXY/LB1D1 |
Departure
| Time | N/A |
|---|---|
| Airport | Zürich Airport (LSZH) |
Arrival
| Time | 2026-05-06 19:26 |
|---|---|
| Airport | Cristiano Ronaldo International Airport (LPMA) |
| Time | Latitude | Longitude | Altitude | Speed | Heading |
|---|---|---|---|---|---|
| 2026-05-06 17:33 | 40.92983 | -6.65026 | 32908 ft | 390 kts | 230° |
| 2026-05-06 17:33 | 40.91185 | -6.67726 | 32913 ft | 390 kts | 230° |
| 2026-05-06 17:34 | 40.87599 | -6.73107 | 32911 ft | 390 kts | 230° |
| 2026-05-06 17:34 | 40.84010 | -6.78480 | 32910 ft | 390 kts | 230° |
| 2026-05-06 17:35 | 40.80421 | -6.83844 | 32910 ft | 389 kts | 230° |
| 2026-05-06 17:35 | 40.76832 | -6.89198 | 32913 ft | 389 kts | 230° |
| 2026-05-06 17:36 | 40.71450 | -6.97209 | 32912 ft | 389 kts | 230° |
| 2026-05-06 17:36 | 40.67857 | -7.02545 | 32908 ft | 389 kts | 230° |
| 2026-05-06 17:37 | 40.64264 | -7.07873 | 32914 ft | 389 kts | 230° |
| 2026-05-06 17:37 | 40.60671 | -7.13191 | 32914 ft | 388 kts | 230° |
| 2026-05-06 17:38 | 40.57080 | -7.18496 | 32917 ft | 388 kts | 230° |
| 2026-05-06 17:38 | 40.53482 | -7.23803 | 32917 ft | 388 kts | 230° |
| 2026-05-06 17:39 | 40.49890 | -7.29092 | 32914 ft | 388 kts | 230° |
| 2026-05-06 17:39 | 40.46295 | -7.34377 | 32918 ft | 388 kts | 230° |
| 2026-05-06 17:40 | 40.42696 | -7.39656 | 32916 ft | 388 kts | 230° |
| 2026-05-06 17:40 | 40.39098 | -7.44926 | 32921 ft | 388 kts | 230° |
| 2026-05-06 17:41 | 40.35501 | -7.50187 | 32921 ft | 388 kts | 230° |
| 2026-05-06 17:41 | 40.31896 | -7.55448 | 32924 ft | 387 kts | 230° |
| 2026-05-06 17:42 | 40.28292 | -7.60699 | 32935 ft | 388 kts | 230° |
| 2026-05-06 17:42 | 40.24687 | -7.65943 | 32930 ft | 387 kts | 230° |
| 2026-05-06 17:43 | 40.21109 | -7.71138 | 32920 ft | 387 kts | 230° |
| 2026-05-06 17:43 | 40.17507 | -7.76358 | 32925 ft | 387 kts | 230° |
| 2026-05-06 17:44 | 40.13900 | -7.81578 | 32928 ft | 387 kts | 230° |
| 2026-05-06 17:44 | 40.10290 | -7.86794 | 32922 ft | 387 kts | 230° |
| 2026-05-06 17:45 | 40.06676 | -7.92006 | 32938 ft | 387 kts | 230° |
| 2026-05-06 17:45 | 40.03062 | -7.97210 | 32932 ft | 387 kts | 230° |
| 2026-05-06 17:46 | 39.99445 | -8.02409 | 32929 ft | 387 kts | 230° |
| 2026-05-06 17:46 | 39.95823 | -8.07603 | 32929 ft | 387 kts | 230° |
| 2026-05-06 17:47 | 39.92202 | -8.12790 | 32934 ft | 387 kts | 230° |
| 2026-05-06 17:47 | 39.88577 | -8.17977 | 32934 ft | 387 kts | 230° |
| 2026-05-06 17:48 | 39.84951 | -8.23153 | 32939 ft | 387 kts | 230° |
| 2026-05-06 17:48 | 39.81318 | -8.28333 | 32935 ft | 387 kts | 230° |
| 2026-05-06 17:49 | 39.77691 | -8.33494 | 32936 ft | 387 kts | 230° |
| 2026-05-06 17:49 | 39.74062 | -8.38647 | 32946 ft | 386 kts | 230° |
| 2026-05-06 17:50 | 39.70437 | -8.43784 | 32956 ft | 385 kts | 230° |
| 2026-05-06 17:50 | 39.66818 | -8.48908 | 32937 ft | 385 kts | 230° |
| 2026-05-06 17:51 | 39.63213 | -8.54055 | 32967 ft | 385 kts | 231° |
| 2026-05-06 17:51 | 39.59634 | -8.59226 | 32963 ft | 385 kts | 231° |
| 2026-05-06 17:52 | 39.56054 | -8.64386 | 32959 ft | 385 kts | 231° |
| 2026-05-06 17:52 | 39.52465 | -8.69538 | 32973 ft | 385 kts | 230° |
| 2026-05-06 17:53 | 39.48870 | -8.74685 | 32965 ft | 385 kts | 230° |
| 2026-05-06 17:53 | 39.45280 | -8.79816 | 32975 ft | 384 kts | 230° |
| 2026-05-06 17:54 | 39.41691 | -8.84935 | 32974 ft | 384 kts | 230° |
| 2026-05-06 17:54 | 39.38097 | -8.90053 | 32972 ft | 384 kts | 230° |
| 2026-05-06 17:55 | 39.34504 | -8.95163 | 32984 ft | 384 kts | 230° |
| 2026-05-06 17:55 | 39.30906 | -9.00272 | 32980 ft | 384 kts | 230° |
| 2026-05-06 17:56 | 39.27311 | -9.05368 | 32979 ft | 384 kts | 230° |
| 2026-05-06 17:56 | 39.23713 | -9.10460 | 32990 ft | 384 kts | 230° |
| 2026-05-06 17:57 | 39.20115 | -9.15543 | 32981 ft | 384 kts | 230° |
| 2026-05-06 17:57 | 39.16510 | -9.20627 | 32982 ft | 384 kts | 230° |
| 2026-05-06 17:58 | 39.12928 | -9.25671 | 32987 ft | 384 kts | 230° |
| 2026-05-06 17:58 | 39.09319 | -9.30745 | 32991 ft | 384 kts | 230° |
| 2026-05-06 17:59 | 39.05709 | -9.35812 | 32992 ft | 384 kts | 230° |
| 2026-05-06 17:59 | 39.02093 | -9.40879 | 32998 ft | 384 kts | 230° |
| 2026-05-06 18:00 | 38.98480 | -9.45934 | 32996 ft | 384 kts | 230° |
| 2026-05-06 18:00 | 38.94860 | -9.50992 | 32993 ft | 384 kts | 230° |
| 2026-05-06 18:01 | 38.91242 | -9.56036 | 32993 ft | 384 kts | 230° |
| 2026-05-06 18:01 | 38.87623 | -9.61075 | 33001 ft | 384 kts | 230° |
| 2026-05-06 18:02 | 38.84006 | -9.66103 | 33001 ft | 384 kts | 230° |
| 2026-05-06 18:02 | 38.80383 | -9.71130 | 33009 ft | 384 kts | 230° |
| 2026-05-06 18:03 | 38.76759 | -9.76152 | 33009 ft | 383 kts | 230° |
| 2026-05-06 18:03 | 38.73137 | -9.81162 | 33009 ft | 383 kts | 230° |
| 2026-05-06 18:04 | 38.69508 | -9.86174 | 33007 ft | 384 kts | 230° |
| 2026-05-06 18:04 | 38.65879 | -9.91178 | 33012 ft | 384 kts | 230° |
| 2026-05-06 18:05 | 38.62242 | -9.96185 | 33012 ft | 384 kts | 230° |
| 2026-05-06 18:05 | 38.58611 | -10.01177 | 33018 ft | 384 kts | 230° |
| 2026-05-06 18:06 | 38.54967 | -10.06177 | 33016 ft | 384 kts | 229° |
| 2026-05-06 18:06 | 38.51326 | -10.11165 | 33015 ft | 384 kts | 229° |
| 2026-05-06 18:07 | 38.47685 | -10.16146 | 33023 ft | 384 kts | 229° |
| 2026-05-06 18:07 | 38.44065 | -10.21090 | 32998 ft | 384 kts | 229° |
| 2026-05-06 18:08 | 38.40410 | -10.26074 | 33024 ft | 385 kts | 229° |
| 2026-05-06 18:08 | 38.36751 | -10.31055 | 33026 ft | 385 kts | 229° |
| 2026-05-06 18:09 | 38.33093 | -10.36028 | 33025 ft | 385 kts | 229° |
| 2026-05-06 18:09 | 38.29422 | -10.41010 | 33026 ft | 385 kts | 229° |
| 2026-05-06 18:10 | 38.25756 | -10.45977 | 33032 ft | 385 kts | 229° |
| 2026-05-06 18:10 | 38.22091 | -10.50936 | 33031 ft | 385 kts | 229° |
| 2026-05-06 18:11 | 38.19041 | -10.55056 | 33031 ft | 385 kts | 229° |
| 2026-05-06 18:11 | 38.14772 | -10.60813 | 33034 ft | 386 kts | 229° |
| 2026-05-06 18:12 | 38.11551 | -10.65151 | 33031 ft | 387 kts | 229° |
| 2026-05-06 18:12 | 38.08456 | -10.69313 | 33033 ft | 387 kts | 229° |
| 2026-05-06 18:13 | 38.04160 | -10.75082 | 33036 ft | 387 kts | 229° |
| 2026-05-06 18:13 | 38.00462 | -10.80039 | 33036 ft | 387 kts | 229° |
| 2026-05-06 18:14 | 37.96763 | -10.84989 | 33039 ft | 387 kts | 229° |
| 2026-05-06 18:14 | 37.93060 | -10.89937 | 33037 ft | 387 kts | 229° |
| 2026-05-06 18:15 | 37.89986 | -10.94039 | 33040 ft | 386 kts | 229° |
| 2026-05-06 18:15 | 37.86270 | -10.98990 | 33041 ft | 389 kts | 230° |
| 2026-05-06 18:16 | 37.81933 | -11.04760 | 33040 ft | 389 kts | 230° |
| 2026-05-06 18:16 | 37.78802 | -11.08918 | 33037 ft | 389 kts | 230° |
| 2026-05-06 18:17 | 37.75064 | -11.13874 | 33045 ft | 389 kts | 230° |
| 2026-05-06 18:17 | 37.71325 | -11.18824 | 33051 ft | 389 kts | 230° |
| 2026-05-06 18:18 | 37.67584 | -11.23770 | 33047 ft | 389 kts | 229° |
| 2026-05-06 18:18 | 37.63863 | -11.28682 | 33028 ft | 390 kts | 229° |
| 2026-05-06 18:19 | 37.60110 | -11.33628 | 33034 ft | 391 kts | 230° |
| 2026-05-06 18:19 | 37.56336 | -11.38596 | 33042 ft | 393 kts | 230° |
| 2026-05-06 18:20 | 37.52552 | -11.43567 | 33042 ft | 393 kts | 230° |
| 2026-05-06 18:20 | 37.48764 | -11.48534 | 33043 ft | 393 kts | 230° |
| 2026-05-06 18:21 | 37.44975 | -11.53496 | 33043 ft | 393 kts | 230° |
| 2026-05-06 18:21 | 37.41183 | -11.58454 | 33042 ft | 393 kts | 230° |
| 2026-05-06 18:22 | 37.37389 | -11.63408 | 33028 ft | 393 kts | 230° |
| 2026-05-06 18:22 | 37.33589 | -11.68361 | 33045 ft | 393 kts | 230° |
| 2026-05-06 18:23 | 37.29789 | -11.73307 | 33044 ft | 393 kts | 230° |
| 2026-05-06 18:23 | 37.25987 | -11.78247 | 33051 ft | 394 kts | 230° |
| 2026-05-06 18:24 | 37.22181 | -11.83185 | 33048 ft | 393 kts | 230° |
| 2026-05-06 18:24 | 37.18374 | -11.88118 | 33050 ft | 393 kts | 230° |
| 2026-05-06 18:25 | 37.14567 | -11.93043 | 33047 ft | 393 kts | 230° |
| 2026-05-06 18:25 | 37.10755 | -11.97965 | 33048 ft | 393 kts | 230° |
| 2026-05-06 18:26 | 37.06943 | -12.02882 | 33048 ft | 393 kts | 229° |
| 2026-05-06 18:26 | 37.03121 | -12.07801 | 33051 ft | 396 kts | 230° |
| 2026-05-06 18:27 | 36.99291 | -12.12728 | 33051 ft | 398 kts | 230° |
| 2026-05-06 18:27 | 36.95422 | -12.17693 | 33050 ft | 399 kts | 230° |
| 2026-05-06 18:28 | 36.91550 | -12.22655 | 33051 ft | 399 kts | 230° |
| 2026-05-06 18:28 | 36.87677 | -12.27609 | 32985 ft | 395 kts | 230° |
| 2026-05-06 18:29 | 36.85729 | -12.30102 | 32784 ft | 411 kts | 230° |
| 2026-05-06 18:29 | 36.83718 | -12.32680 | 32187 ft | 415 kts | 230° |
| 2026-05-06 18:29 | 36.81691 | -12.35271 | 31266 ft | 421 kts | 229° |
| 2026-05-06 18:29 | 36.79619 | -12.37915 | 30762 ft | 432 kts | 229° |
| 2026-05-06 18:30 | 36.77497 | -12.40619 | 30641 ft | 439 kts | 229° |
| 2026-05-06 18:30 | 36.75349 | -12.43351 | 30817 ft | 442 kts | 230° |
| 2026-05-06 18:30 | 36.73186 | -12.46098 | 31007 ft | 445 kts | 230° |
| 2026-05-06 18:30 | 36.71010 | -12.48859 | 31058 ft | 446 kts | 230° |
| 2026-05-06 18:31 | 36.66654 | -12.54381 | 31052 ft | 447 kts | 230° |
| 2026-05-06 18:31 | 36.62296 | -12.59899 | 31053 ft | 447 kts | 230° |
| 2026-05-06 18:32 | 36.57930 | -12.65421 | 31057 ft | 447 kts | 230° |
| 2026-05-06 18:32 | 36.53566 | -12.70932 | 31055 ft | 447 kts | 229° |
| 2026-05-06 18:33 | 36.49196 | -12.76440 | 31056 ft | 448 kts | 229° |
| 2026-05-06 18:33 | 36.44806 | -12.81964 | 31059 ft | 451 kts | 230° |
| 2026-05-06 18:34 | 36.40389 | -12.87514 | 31059 ft | 452 kts | 230° |
| 2026-05-06 18:34 | 36.35991 | -12.93028 | 31061 ft | 452 kts | 230° |
| 2026-05-06 18:35 | 36.31561 | -12.98563 | 31058 ft | 453 kts | 229° |
| 2026-05-06 18:35 | 36.26969 | -13.03933 | 31052 ft | 454 kts | 227° |
| 2026-05-06 18:36 | 36.22364 | -13.09279 | 31064 ft | 454 kts | 227° |
| 2026-05-06 18:36 | 36.17773 | -13.14629 | 31055 ft | 454 kts | 228° |
| 2026-05-06 18:37 | 36.13151 | -13.20015 | 31064 ft | 457 kts | 228° |
| 2026-05-06 18:37 | 36.08517 | -13.25407 | 31064 ft | 458 kts | 228° |
| 2026-05-06 18:38 | 36.03879 | -13.30795 | 31066 ft | 458 kts | 228° |
| 2026-05-06 18:38 | 35.99238 | -13.36179 | 31058 ft | 458 kts | 228° |
| 2026-05-06 18:39 | 35.94603 | -13.41546 | 31067 ft | 457 kts | 228° |
| 2026-05-06 18:40 | 35.87644 | -13.49588 | 31056 ft | 457 kts | 227° |
| 2026-05-06 18:40 | 35.82987 | -13.54960 | 31071 ft | 460 kts | 228° |
| 2026-05-06 18:41 | 35.78312 | -13.60342 | 31071 ft | 460 kts | 228° |
| 2026-05-06 18:41 | 35.73636 | -13.65717 | 31070 ft | 460 kts | 228° |
| 2026-05-06 18:42 | 35.68947 | -13.71095 | 31069 ft | 460 kts | 228° |
| 2026-05-06 18:42 | 35.64274 | -13.76447 | 31071 ft | 459 kts | 228° |
| 2026-05-06 18:43 | 35.59599 | -13.81794 | 31075 ft | 459 kts | 228° |
| 2026-05-06 18:43 | 35.54919 | -13.87136 | 31059 ft | 460 kts | 229° |
| 2026-05-06 18:44 | 35.50214 | -13.92500 | 31075 ft | 462 kts | 229° |
| 2026-05-06 18:44 | 35.45495 | -13.97869 | 31075 ft | 463 kts | 229° |
| 2026-05-06 18:45 | 35.40804 | -14.03197 | 31076 ft | 463 kts | 229° |
| 2026-05-06 18:45 | 35.36075 | -14.08560 | 31079 ft | 463 kts | 229° |
| 2026-05-06 18:46 | 35.31339 | -14.13921 | 31077 ft | 463 kts | 229° |
| 2026-05-06 18:46 | 35.26605 | -14.19272 | 31079 ft | 463 kts | 229° |
| 2026-05-06 18:47 | 35.21859 | -14.24627 | 31079 ft | 465 kts | 229° |
| 2026-05-06 18:47 | 35.17085 | -14.30006 | 31077 ft | 467 kts | 229° |
| 2026-05-06 18:47 | 35.14708 | -14.32676 | 30791 ft | 461 kts | 229° |
| 2026-05-06 18:48 | 35.12356 | -14.35317 | 30320 ft | 458 kts | 229° |
| 2026-05-06 18:48 | 35.09996 | -14.37971 | 30150 ft | 462 kts | 229° |
| 2026-05-06 18:48 | 35.07639 | -14.40619 | 29965 ft | 463 kts | 229° |
| 2026-05-06 18:48 | 35.05265 | -14.43281 | 29741 ft | 461 kts | 229° |
| 2026-05-06 18:49 | 35.02900 | -14.45931 | 29618 ft | 461 kts | 229° |
| 2026-05-06 18:49 | 35.00537 | -14.48576 | 29969 ft | 459 kts | 229° |
| 2026-05-06 18:49 | 34.98199 | -14.51188 | 30080 ft | 455 kts | 229° |
| 2026-05-06 18:50 | 34.93573 | -14.56358 | 30087 ft | 454 kts | 229° |
| 2026-05-06 18:50 | 34.88901 | -14.61573 | 30090 ft | 457 kts | 229° |
| 2026-05-06 18:51 | 34.84207 | -14.66802 | 30084 ft | 458 kts | 229° |
| 2026-05-06 18:51 | 34.79504 | -14.72030 | 30088 ft | 458 kts | 229° |
| 2026-05-06 18:52 | 34.74802 | -14.77249 | 30088 ft | 458 kts | 229° |
| 2026-05-06 18:52 | 34.70102 | -14.82457 | 30088 ft | 458 kts | 229° |
| 2026-05-06 18:53 | 34.65384 | -14.87678 | 30088 ft | 458 kts | 229° |
| 2026-05-06 18:53 | 34.60674 | -14.92880 | 30091 ft | 458 kts | 229° |
| 2026-05-06 18:54 | 34.55948 | -14.98094 | 30093 ft | 460 kts | 229° |
| 2026-05-06 18:54 | 34.51202 | -15.03321 | 30091 ft | 461 kts | 229° |
| 2026-05-06 18:55 | 34.46451 | -15.08543 | 30091 ft | 461 kts | 229° |
| 2026-05-06 18:55 | 34.41691 | -15.13767 | 30091 ft | 461 kts | 229° |
| 2026-05-06 18:56 | 34.36936 | -15.18978 | 30089 ft | 461 kts | 229° |
| 2026-05-06 18:56 | 34.32175 | -15.24187 | 30091 ft | 461 kts | 229° |
| 2026-05-06 18:57 | 34.27412 | -15.29391 | 30078 ft | 461 kts | 229° |
| 2026-05-06 18:57 | 34.22689 | -15.34540 | 30089 ft | 460 kts | 229° |
| 2026-05-06 18:58 | 34.17930 | -15.39723 | 30094 ft | 460 kts | 229° |
| 2026-05-06 18:58 | 34.13173 | -15.44895 | 30091 ft | 460 kts | 229° |
| 2026-05-06 18:59 | 34.08408 | -15.50067 | 30097 ft | 460 kts | 229° |
| 2026-05-06 18:59 | 34.03645 | -15.55229 | 30093 ft | 460 kts | 229° |
| 2026-05-06 19:00 | 33.98881 | -15.60384 | 30094 ft | 460 kts | 229° |
| 2026-05-06 19:00 | 33.94113 | -15.65534 | 30079 ft | 461 kts | 229° |
| 2026-05-06 19:01 | 33.89319 | -15.70707 | 30095 ft | 464 kts | 229° |
| 2026-05-06 19:01 | 33.84505 | -15.75892 | 30097 ft | 464 kts | 229° |
| 2026-05-06 19:02 | 33.79702 | -15.81056 | 30097 ft | 464 kts | 229° |
| 2026-05-06 19:02 | 33.74871 | -15.86242 | 30094 ft | 464 kts | 229° |
| 2026-05-06 19:03 | 33.70081 | -15.91376 | 30094 ft | 464 kts | 228° |
| 2026-05-06 19:03 | 33.65044 | -15.96277 | 30101 ft | 471 kts | 219° |
| 2026-05-06 19:04 | 33.60424 | -15.99838 | 30065 ft | 471 kts | 218° |
| 2026-05-06 19:04 | 33.57677 | -16.01928 | 29597 ft | 465 kts | 218° |
| 2026-05-06 19:04 | 33.54981 | -16.03987 | 28873 ft | 465 kts | 218° |
| 2026-05-06 19:04 | 33.52228 | -16.06091 | 28263 ft | 462 kts | 218° |
| 2026-05-06 19:05 | 33.49535 | -16.08148 | 27704 ft | 457 kts | 218° |
| 2026-05-06 19:05 | 33.46897 | -16.10164 | 27168 ft | 453 kts | 218° |
| 2026-05-06 19:05 | 33.44249 | -16.12186 | 26631 ft | 449 kts | 218° |
| 2026-05-06 19:05 | 33.41627 | -16.14188 | 26117 ft | 445 kts | 218° |
| 2026-05-06 19:06 | 33.39028 | -16.16172 | 25594 ft | 441 kts | 217° |
| 2026-05-06 19:06 | 33.36455 | -16.18133 | 25115 ft | 436 kts | 217° |
| 2026-05-06 19:06 | 33.33907 | -16.20076 | 24597 ft | 433 kts | 217° |
| 2026-05-06 19:06 | 33.31377 | -16.22002 | 24090 ft | 429 kts | 217° |
| 2026-05-06 19:07 | 33.28808 | -16.23810 | 23550 ft | 430 kts | 209° |
| 2026-05-06 19:07 | 33.25939 | -16.24813 | 22972 ft | 433 kts | 190° |
| 2026-05-06 19:07 | 33.22939 | -16.24989 | 22444 ft | 430 kts | 182° |
| 2026-05-06 19:07 | 33.19963 | -16.24969 | 21909 ft | 425 kts | 181° |
| 2026-05-06 19:08 | 33.17023 | -16.24931 | 21379 ft | 420 kts | 181° |
| 2026-05-06 19:08 | 33.14139 | -16.24887 | 20969 ft | 404 kts | 181° |
| 2026-05-06 19:08 | 33.11413 | -16.24835 | 20579 ft | 381 kts | 181° |
| 2026-05-06 19:08 | 33.08807 | -16.24777 | 20210 ft | 371 kts | 181° |
| 2026-05-06 19:09 | 33.06236 | -16.24761 | 19843 ft | 366 kts | 186° |
| 2026-05-06 19:09 | 33.03760 | -16.25257 | 19483 ft | 357 kts | 201° |
| 2026-05-06 19:09 | 33.01583 | -16.26546 | 19132 ft | 345 kts | 221° |
| 2026-05-06 19:09 | 32.99981 | -16.28580 | 18789 ft | 332 kts | 241° |
| 2026-05-06 19:10 | 32.98798 | -16.30916 | 18442 ft | 328 kts | 245° |
| 2026-05-06 19:10 | 32.97683 | -16.33282 | 18048 ft | 326 kts | 245° |
| 2026-05-06 19:10 | 32.96580 | -16.35627 | 17499 ft | 324 kts | 245° |
| 2026-05-06 19:10 | 32.95478 | -16.37961 | 17026 ft | 323 kts | 245° |
| 2026-05-06 19:11 | 32.94379 | -16.40282 | 16569 ft | 321 kts | 245° |
| 2026-05-06 19:11 | 32.93279 | -16.42603 | 16016 ft | 322 kts | 244° |
| 2026-05-06 19:11 | 32.92187 | -16.44902 | 15382 ft | 315 kts | 244° |
| 2026-05-06 19:11 | 32.91111 | -16.47161 | 14886 ft | 312 kts | 244° |
| 2026-05-06 19:12 | 32.90057 | -16.49377 | 14422 ft | 311 kts | 244° |
| 2026-05-06 19:12 | 32.88996 | -16.51605 | 13960 ft | 309 kts | 244° |
| 2026-05-06 19:12 | 32.87928 | -16.53846 | 13434 ft | 306 kts | 244° |
| 2026-05-06 19:12 | 32.86891 | -16.56019 | 12942 ft | 305 kts | 244° |
| 2026-05-06 19:13 | 32.85753 | -16.58118 | 12411 ft | 300 kts | 235° |
| 2026-05-06 19:13 | 32.84205 | -16.59792 | 11910 ft | 306 kts | 215° |
| 2026-05-06 19:13 | 32.82340 | -16.61024 | 11413 ft | 307 kts | 210° |
| 2026-05-06 19:13 | 32.80434 | -16.62163 | 11154 ft | 307 kts | 209° |
| 2026-05-06 19:14 | 32.78522 | -16.63302 | 11095 ft | 307 kts | 209° |
| 2026-05-06 19:14 | 32.76614 | -16.64445 | 11098 ft | 306 kts | 210° |
| 2026-05-06 19:14 | 32.74717 | -16.65583 | 11101 ft | 305 kts | 209° |
| 2026-05-06 19:14 | 32.72741 | -16.66525 | 11099 ft | 309 kts | 194° |
| 2026-05-06 19:15 | 32.70592 | -16.66545 | 11108 ft | 314 kts | 169° |
| 2026-05-06 19:15 | 32.68595 | -16.65532 | 11102 ft | 314 kts | 144° |
| 2026-05-06 19:15 | 32.67099 | -16.63679 | 11105 ft | 312 kts | 122° |
| 2026-05-06 19:15 | 32.65996 | -16.61470 | 11099 ft | 311 kts | 117° |
| 2026-05-06 19:16 | 32.64971 | -16.59216 | 11099 ft | 311 kts | 116° |
| 2026-05-06 19:16 | 32.63954 | -16.56956 | 11099 ft | 310 kts | 116° |
| 2026-05-06 19:16 | 32.62940 | -16.54701 | 11098 ft | 310 kts | 116° |
| 2026-05-06 19:16 | 32.62027 | -16.52682 | 11097 ft | 310 kts | 116° |
| 2026-05-06 19:17 | 32.60820 | -16.50551 | 11095 ft | 312 kts | 128° |
| 2026-05-06 19:17 | 32.59243 | -16.48785 | 11094 ft | 313 kts | 145° |
| 2026-05-06 19:17 | 32.57277 | -16.47769 | 10792 ft | 307 kts | 170° |
| 2026-05-06 19:17 | 32.55179 | -16.47884 | 10276 ft | 303 kts | 199° |
| 2026-05-06 19:18 | 32.53424 | -16.49156 | 9799 ft | 295 kts | 230° |
| 2026-05-06 19:18 | 32.52450 | -16.51219 | 9313 ft | 284 kts | 258° |
| 2026-05-06 19:18 | 32.52318 | -16.53509 | 8972 ft | 276 kts | 275° |
| 2026-05-06 19:18 | 32.52414 | -16.55744 | 8727 ft | 267 kts | 275° |
| 2026-05-06 19:19 | 32.52516 | -16.57896 | 8610 ft | 256 kts | 276° |
| 2026-05-06 19:19 | 32.52608 | -16.59966 | 8584 ft | 247 kts | 276° |
| 2026-05-06 19:19 | 32.52695 | -16.61996 | 8286 ft | 245 kts | 275° |
| 2026-05-06 19:19 | 32.52776 | -16.63986 | 7772 ft | 241 kts | 275° |
| 2026-05-06 19:20 | 32.52851 | -16.65971 | 7146 ft | 240 kts | 275° |
| 2026-05-06 19:20 | 32.52924 | -16.67928 | 6540 ft | 236 kts | 275° |
| 2026-05-06 19:20 | 32.52996 | -16.69860 | 5915 ft | 234 kts | 275° |
| 2026-05-06 19:20 | 32.53066 | -16.71782 | 5279 ft | 234 kts | 275° |
| 2026-05-06 19:21 | 32.53135 | -16.73707 | 4637 ft | 233 kts | 275° |
| 2026-05-06 19:21 | 32.53209 | -16.75636 | 4018 ft | 236 kts | 275° |
| 2026-05-06 19:21 | 32.53282 | -16.77587 | 3367 ft | 236 kts | 276° |
| 2026-05-06 19:21 | 32.53512 | -16.79468 | 2716 ft | 228 kts | 297° |
| 2026-05-06 19:22 | 32.54556 | -16.80748 | 2206 ft | 213 kts | 338° |
| 2026-05-06 19:22 | 32.55960 | -16.80906 | 2008 ft | 200 kts | 7° |
| 2026-05-06 19:22 | 32.57280 | -16.80707 | 1996 ft | 181 kts | 7° |
| 2026-05-06 19:22 | 32.58472 | -16.80564 | 1977 ft | 162 kts | 5° |
| 2026-05-06 19:23 | 32.59545 | -16.80478 | 1972 ft | 151 kts | 4° |
| 2026-05-06 19:23 | 32.60592 | -16.80426 | 1963 ft | 151 kts | 3° |
| 2026-05-06 19:23 | 32.61634 | -16.80395 | 1985 ft | 144 kts | 1° |
| 2026-05-06 19:23 | 32.62595 | -16.80380 | 1956 ft | 132 kts | 1° |
| 2026-05-06 19:24 | 32.63471 | -16.80371 | 1942 ft | 121 kts | 1° |
| 2026-05-06 19:24 | 32.64308 | -16.80370 | 1789 ft | 122 kts | 0° |
| 2026-05-06 19:24 | 32.65170 | -16.80380 | 1504 ft | 125 kts | 359° |
| 2026-05-06 19:24 | 32.66043 | -16.80404 | 1198 ft | 126 kts | 359° |
| 2026-05-06 19:25 | 32.66896 | -16.80371 | 947 ft | 121 kts | 8° |
| 2026-05-06 19:25 | 32.67646 | -16.80023 | 684 ft | 115 kts | 40° |
| 2026-05-06 19:25 | 32.68199 | -16.79287 | 466 ft | 118 kts | 40° |
| 2026-05-06 19:25 | 32.68787 | -16.78618 | 263 ft | 115 kts | 41° |
| 2026-05-06 19:26 | 32.69342 | -16.77973 | 183 ft | 102 kts | 45° |
| 2026-05-06 19:26 | 32.69658 | -16.77597 | 183 ft | 34 kts | 44° |
| 2026-05-06 19:26 | 32.69819 | -16.77413 | 183 ft | 31 kts | 44° |
| 2026-05-06 19:26 | 32.69954 | -16.77234 | 183 ft | 24 kts | 72° |
| 2026-05-06 19:27 | 32.69952 | -16.77198 | 183 ft | 6 kts | 122° |
| 2026-05-06 19:27 | 32.69898 | -16.77179 | 183 ft | 12 kts | 177° |
| 2026-05-06 19:27 | 32.69810 | -16.77218 | 183 ft | 15 kts | 221° |
| 2026-05-06 19:27 | 32.69725 | -16.77318 | 183 ft | 20 kts | 226° |
| 2026-05-06 19:28 | 32.69637 | -16.77427 | 183 ft | 0 kts | 226° |
| 2026-05-06 19:28 | 32.69605 | -16.77452 | 183 ft | 7 kts | 190° |
| 2026-05-06 19:28 | 32.69578 | -16.77434 | 183 ft | 5 kts | 135° |
| 2026-05-06 19:28 | 32.69546 | -16.77399 | 183 ft | 0 kts | 137° |
| 2026-05-06 19:29 | 32.69543 | -16.77396 | 183 ft | 4 kts | 137° |
| 2026-05-06 19:29 | 32.69542 | -16.77395 | 183 ft | 0 kts | 137° |
| 2026-05-06 19:37 | 32.69543 | -16.77395 | 183 ft | 0 kts | 138° |